KLNN/LNN METAR and TAF weather

Enter ICAO airport designator
Station Type Date Time Source
KLNN METAR 2021/09/23 23:55 UTC NOAA

KLNN 232355Z AUTO 21009KT 10SM SCT024 BKN037 OVC049 11/08 A2985 RMK AO1 T01110078 10127 20110


Station Type Date Time Source
KLNN Decoded METAR 2021/09/23 23:55 UTC NOAA

Willoughby, OH, United States (KLNN) 41-41N 081-23W
Sep 23, 2021 - 07:55 PM EDT / 2021.09.23 2355 UTC
Wind: from the SSW (210 degrees) at 10 MPH (9 KT):0
Visibility: 10 mile(s):0
Sky conditions: overcast
Temperature: 52.0 F (11.1 C)
Dew Point: 46.0 F (7.8 C)
Relative Humidity: 80%
Pressure (altimeter): 29.85 in. Hg (1010 hPa)
ob: KLNN 232355Z AUTO 21009KT 10SM SCT024 BKN037 OVC049 11/08 A2985 RMK AO1 T01110078 10127 20110
cycle: 0

Station Type Date Time Source
KLNN TAF UTC NOAA

Error!

Example: see airport list